CMB845 Details

Departure: NAS Sigonella (LICZ)
Arrival: Bahrain International Airport (OBBI) at N/A
Route: ERNAM5U ERNAM EMLAR N4 SALUN Q680 DBA UM872 WEJ UL604 KFA M691 LADNA LADNA1
Notes: USTRANSCOM CONTRACT FLIGHT


Current Weather Information
LICZ 250355Z 26004KT CAVOK 21/21 Q1016 RMK SKC VIS MIN 9999 WIND THR28 25004KT WIND THR10 25004KT A3002 BLU
OBBI 250430Z VRB03KT 8000 FEW010 35/29 Q1003 NOSIG